sensor_id;sensor_type;location;lat;lon;timestamp;pressure;altitude;pressure_sealevel;temperature;humidity
75247;BME280;63844;50.042;19.224;2023-12-07T00:00:46;98999.20;;;-3.19;94.68
75247;BME280;63844;50.042;19.224;2023-12-07T00:02:39;99000.38;;;-3.15;94.68
75247;BME280;63844;50.042;19.224;2023-12-07T00:04:16;99006.41;;;-3.12;95.04
75247;BME280;63844;50.042;19.224;2023-12-07T00:05:52;99004.51;;;-3.13;94.98
75247;BME280;63844;50.042;19.224;2023-12-07T00:07:29;99005.04;;;-3.13;94.72
75247;BME280;63844;50.042;19.224;2023-12-07T00:09:06;99003.99;;;-3.13;95.02
75247;BME280;63844;50.042;19.224;2023-12-07T00:10:42;99006.26;;;-3.13;95.30
75247;BME280;63844;50.042;19.224;2023-12-07T00:12:19;99010.25;;;-3.16;95.39
75247;BME280;63844;50.042;19.224;2023-12-07T00:13:56;99009.02;;;-3.16;95.11
75247;BME280;63844;50.042;19.224;2023-12-07T00:15:32;99007.98;;;-3.14;95.43
75247;BME280;63844;50.042;19.224;2023-12-07T00:17:09;99014.09;;;-3.18;95.56
75247;BME280;63844;50.042;19.224;2023-12-07T00:18:46;99014.42;;;-3.18;95.49
75247;BME280;63844;50.042;19.224;2023-12-07T00:20:24;99010.11;;;-3.19;95.66
75247;BME280;63844;50.042;19.224;2023-12-07T00:22:01;99017.20;;;-3.19;95.24
75247;BME280;63844;50.042;19.224;2023-12-07T00:23:38;99019.78;;;-3.16;95.28
75247;BME280;63844;50.042;19.224;2023-12-07T00:25:15;99018.02;;;-3.14;94.93
75247;BME280;63844;50.042;19.224;2023-12-07T00:26:52;99017.99;;;-3.12;94.83
75247;BME280;63844;50.042;19.224;2023-12-07T00:28:29;99019.37;;;-3.10;94.56
75247;BME280;63844;50.042;19.224;2023-12-07T00:30:06;99019.39;;;-3.12;94.12
75247;BME280;63844;50.042;19.224;2023-12-07T00:31:43;99023.89;;;-3.11;94.05
75247;BME280;63844;50.042;19.224;2023-12-07T00:33:20;99023.34;;;-3.10;94.10
75247;BME280;63844;50.042;19.224;2023-12-07T00:34:58;99025.59;;;-3.10;93.82
75247;BME280;63844;50.042;19.224;2023-12-07T00:36:34;99024.23;;;-3.11;93.85
75247;BME280;63844;50.042;19.224;2023-12-07T00:38:11;99022.48;;;-3.10;93.97
75247;BME280;63844;50.042;19.224;2023-12-07T00:39:48;99022.65;;;-3.09;94.40
75247;BME280;63844;50.042;19.224;2023-12-07T00:41:25;99026.45;;;-3.09;94.38
75247;BME280;63844;50.042;19.224;2023-12-07T00:43:01;99025.24;;;-3.09;94.74
75247;BME280;63844;50.042;19.224;2023-12-07T00:44:41;99022.48;;;-3.10;94.67
75247;BME280;63844;50.042;19.224;2023-12-07T00:46:18;99020.91;;;-3.09;94.97
75247;BME280;63844;50.042;19.224;2023-12-07T00:47:55;99020.91;;;-3.09;94.56
75247;BME280;63844;50.042;19.224;2023-12-07T00:49:31;99019.52;;;-3.09;94.31
75247;BME280;63844;50.042;19.224;2023-12-07T00:51:08;99018.84;;;-3.09;94.09
75247;BME280;63844;50.042;19.224;2023-12-07T00:52:45;99019.89;;;-3.10;93.83
75247;BME280;63844;50.042;19.224;2023-12-07T00:54:21;99018.48;;;-3.09;93.86
75247;BME280;63844;50.042;19.224;2023-12-07T00:55:58;99021.77;;;-3.08;93.85
75247;BME280;63844;50.042;19.224;2023-12-07T00:57:35;99020.71;;;-3.07;94.38
75247;BME280;63844;50.042;19.224;2023-12-07T00:59:12;99023.66;;;-3.08;93.87
75247;BME280;63844;50.042;19.224;2023-12-07T01:00:48;99024.54;;;-3.08;93.74
75247;BME280;63844;50.042;19.224;2023-12-07T01:02:25;99029.22;;;-3.09;93.68
75247;BME280;63844;50.042;19.224;2023-12-07T01:04:02;99030.25;;;-3.08;93.66
75247;BME280;63844;50.042;19.224;2023-12-07T01:05:38;99029.00;;;-3.04;93.93
75247;BME280;63844;50.042;19.224;2023-12-07T01:07:15;99028.66;;;-3.04;93.83
75247;BME280;63844;50.042;19.224;2023-12-07T01:08:52;99025.35;;;-3.02;94.15
75247;BME280;63844;50.042;19.224;2023-12-07T01:10:28;99030.02;;;-3.03;94.36
75247;BME280;63844;50.042;19.224;2023-12-07T01:12:05;99031.06;;;-3.03;94.88
75247;BME280;63844;50.042;19.224;2023-12-07T01:13:42;99031.59;;;-3.04;95.07
75247;BME280;63844;50.042;19.224;2023-12-07T01:15:19;99032.30;;;-3.06;95.16
75247;BME280;63844;50.042;19.224;2023-12-07T01:16:55;99028.36;;;-3.08;95.24
75247;BME280;63844;50.042;19.224;2023-12-07T01:18:32;99029.21;;;-3.08;95.36
75247;BME280;63844;50.042;19.224;2023-12-07T01:20:09;99029.38;;;-3.07;95.37
75247;BME280;63844;50.042;19.224;2023-12-07T01:21:49;99027.83;;;-3.08;94.95
75247;BME280;63844;50.042;19.224;2023-12-07T01:23:25;99027.46;;;-3.07;94.98
75247;BME280;63844;50.042;19.224;2023-12-07T01:25:02;99027.15;;;-3.09;94.79
75247;BME280;63844;50.042;19.224;2023-12-07T01:26:39;99025.41;;;-3.09;94.60
75247;BME280;63844;50.042;19.224;2023-12-07T01:28:16;99024.55;;;-3.09;94.27
75247;BME280;63844;50.042;19.224;2023-12-07T01:29:53;99022.29;;;-3.09;94.47
75247;BME280;63844;50.042;19.224;2023-12-07T01:31:30;99021.23;;;-3.07;94.47
75247;BME280;63844;50.042;19.224;2023-12-07T01:33:06;99026.61;;;-3.07;94.24
75247;BME280;63844;50.042;19.224;2023-12-07T01:34:43;99025.39;;;-3.07;94.33
75247;BME280;63844;50.042;19.224;2023-12-07T01:36:20;99026.23;;;-3.06;94.47
75247;BME280;63844;50.042;19.224;2023-12-07T01:37:57;99028.48;;;-3.05;94.70
75247;BME280;63844;50.042;19.224;2023-12-07T01:39:33;99033.85;;;-3.05;94.74
75247;BME280;63844;50.042;19.224;2023-12-07T01:41:10;99032.13;;;-3.06;95.32
75247;BME280;63844;50.042;19.224;2023-12-07T01:42:51;99031.31;;;-3.09;95.32
75247;BME280;63844;50.042;19.224;2023-12-07T01:44:28;99030.96;;;-3.10;95.52
75247;BME280;63844;50.042;19.224;2023-12-07T01:46:05;99027.48;;;-3.10;95.52
75247;BME280;63844;50.042;19.224;2023-12-07T01:47:43;99029.21;;;-3.08;95.50
75247;BME280;63844;50.042;19.224;2023-12-07T01:49:20;99027.83;;;-3.07;95.36
75247;BME280;63844;50.042;19.224;2023-12-07T01:50:58;99027.79;;;-3.05;95.43
75247;BME280;63844;50.042;19.224;2023-12-07T01:52:38;99027.44;;;-3.05;95.45
75247;BME280;63844;50.042;19.224;2023-12-07T01:54:14;99025.89;;;-3.06;95.53
75247;BME280;63844;50.042;19.224;2023-12-07T01:55:53;99027.28;;;-3.06;95.65
75247;BME280;63844;50.042;19.224;2023-12-07T01:57:30;99028.17;;;-3.08;95.71
75247;BME280;63844;50.042;19.224;2023-12-07T01:59:06;99027.67;;;-3.10;95.76
75247;BME280;63844;50.042;19.224;2023-12-07T02:00:44;99023.68;;;-3.08;95.49
75247;BME280;63844;50.042;19.224;2023-12-07T02:02:21;99026.10;;;-3.08;95.70
75247;BME280;63844;50.042;19.224;2023-12-07T02:03:58;99026.96;;;-3.08;95.52
75247;BME280;63844;50.042;19.224;2023-12-07T02:05:36;99030.43;;;-3.08;95.45
75247;BME280;63844;50.042;19.224;2023-12-07T02:07:14;99031.65;;;-3.08;95.44
75247;BME280;63844;50.042;19.224;2023-12-07T02:08:50;99029.73;;;-3.09;95.12
75247;BME280;63844;50.042;19.224;2023-12-07T02:10:27;99030.25;;;-3.09;95.37
75247;BME280;63844;50.042;19.224;2023-12-07T02:12:04;99033.56;;;-3.10;95.59
75247;BME280;63844;50.042;19.224;2023-12-07T02:13:41;99031.88;;;-3.13;95.74
75247;BME280;63844;50.042;19.224;2023-12-07T02:15:19;99035.40;;;-3.20;95.23
75247;BME280;63844;50.042;19.224;2023-12-07T02:17:03;99034.95;;;-3.27;94.83
75247;BME280;63844;50.042;19.224;2023-12-07T02:18:53;99035.13;;;-3.28;94.79
75247;BME280;63844;50.042;19.224;2023-12-07T02:20:39;99038.59;;;-3.28;95.23
75247;BME280;63844;50.042;19.224;2023-12-07T02:22:34;99038.23;;;-3.28;95.52
75247;BME280;63844;50.042;19.224;2023-12-07T02:24:20;99039.14;;;-3.30;95.77
75247;BME280;63844;50.042;19.224;2023-12-07T02:28:00;99042.09;;;-3.32;95.97
75247;BME280;63844;50.042;19.224;2023-12-07T02:29:36;99046.58;;;-3.32;96.05
75247;BME280;63844;50.042;19.224;2023-12-07T02:31:13;99047.63;;;-3.33;95.87
75247;BME280;63844;50.042;19.224;2023-12-07T02:32:50;99048.69;;;-3.35;95.81
75247;BME280;63844;50.042;19.224;2023-12-07T02:34:26;99048.84;;;-3.33;95.76
75247;BME280;63844;50.042;19.224;2023-12-07T02:36:04;99046.41;;;-3.32;95.85
75247;BME280;63844;50.042;19.224;2023-12-07T02:37:46;99049.20;;;-3.34;96.10
75247;BME280;63844;50.042;19.224;2023-12-07T02:39:25;99048.51;;;-3.33;95.99
75247;BME280;63844;50.042;19.224;2023-12-07T02:41:02;99048.34;;;-3.33;95.88
75247;BME280;63844;50.042;19.224;2023-12-07T02:42:40;99048.47;;;-3.31;96.05
75247;BME280;63844;50.042;19.224;2023-12-07T02:44:19;99050.54;;;-3.28;96.19
75247;BME280;63844;50.042;19.224;2023-12-07T02:45:56;99052.45;;;-3.29;96.01
75247;BME280;63844;50.042;19.224;2023-12-07T02:47:33;99053.83;;;-3.28;96.16
75247;BME280;63844;50.042;19.224;2023-12-07T02:49:09;99057.44;;;-3.27;96.00
75247;BME280;63844;50.042;19.224;2023-12-07T02:50:46;99057.60;;;-3.26;96.01
75247;BME280;63844;50.042;19.224;2023-12-07T02:52:22;99060.38;;;-3.25;95.56
75247;BME280;63844;50.042;19.224;2023-12-07T02:53:59;99061.39;;;-3.23;95.80
75247;BME280;63844;50.042;19.224;2023-12-07T02:55:36;99062.25;;;-3.23;95.78
75247;BME280;63844;50.042;19.224;2023-12-07T02:57:12;99064.34;;;-3.24;95.84
75247;BME280;63844;50.042;19.224;2023-12-07T02:58:51;99066.58;;;-3.23;95.76
75247;BME280;63844;50.042;19.224;2023-12-07T03:00:27;99067.80;;;-3.23;96.02
75247;BME280;63844;50.042;19.224;2023-12-07T03:02:04;99069.38;;;-3.25;95.82
75247;BME280;63844;50.042;19.224;2023-12-07T03:03:41;99065.77;;;-3.28;95.33
75247;BME280;63844;50.042;19.224;2023-12-07T03:05:18;99070.08;;;-3.26;95.74
75247;BME280;63844;50.042;19.224;2023-12-07T03:06:57;99067.27;;;-3.24;95.71
75247;BME280;63844;50.042;19.224;2023-12-07T03:08:34;99069.17;;;-3.23;95.81
75247;BME280;63844;50.042;19.224;2023-12-07T03:10:11;99070.58;;;-3.24;95.69
75247;BME280;63844;50.042;19.224;2023-12-07T03:11:48;99073.86;;;-3.23;95.72
75247;BME280;63844;50.042;19.224;2023-12-07T03:13:24;99069.69;;;-3.23;95.66
75247;BME280;63844;50.042;19.224;2023-12-07T03:15:01;99071.77;;;-3.23;95.62
75247;BME280;63844;50.042;19.224;2023-12-07T03:16:38;99078.01;;;-3.24;95.90
75247;BME280;63844;50.042;19.224;2023-12-07T03:18:15;99081.45;;;-3.23;95.89
75247;BME280;63844;50.042;19.224;2023-12-07T03:19:52;99080.62;;;-3.24;95.82
75247;BME280;63844;50.042;19.224;2023-12-07T03:21:28;99084.93;;;-3.24;95.83
75247;BME280;63844;50.042;19.224;2023-12-07T03:23:05;99081.99;;;-3.24;95.74
75247;BME280;63844;50.042;19.224;2023-12-07T03:24:50;99080.77;;;-3.23;95.83
75247;BME280;63844;50.042;19.224;2023-12-07T03:26:27;99078.31;;;-3.20;96.08
75247;BME280;63844;50.042;19.224;2023-12-07T03:28:04;99075.73;;;-3.21;96.00
75247;BME280;63844;50.042;19.224;2023-12-07T03:29:41;99072.11;;;-3.23;95.92
75247;BME280;63844;50.042;19.224;2023-12-07T03:31:17;99075.38;;;-3.21;95.96
75247;BME280;63844;50.042;19.224;2023-12-07T03:32:54;99073.64;;;-3.19;96.09
75247;BME280;63844;50.042;19.224;2023-12-07T03:34:31;99073.81;;;-3.19;95.93
75247;BME280;63844;50.042;19.224;2023-12-07T03:36:11;99075.88;;;-3.19;96.05
75247;BME280;63844;50.042;19.224;2023-12-07T03:37:47;99074.69;;;-3.19;96.13
75247;BME280;63844;50.042;19.224;2023-12-07T03:39:24;99072.08;;;-3.19;96.11
75247;BME280;63844;50.042;19.224;2023-12-07T03:41:02;99072.58;;;-3.18;96.16
75247;BME280;63844;50.042;19.224;2023-12-07T03:42:39;99075.86;;;-3.18;96.20
75247;BME280;63844;50.042;19.224;2023-12-07T03:44:16;99073.79;;;-3.17;96.15
75247;BME280;63844;50.042;19.224;2023-12-07T03:45:52;99079.64;;;-3.14;96.30
75247;BME280;63844;50.042;19.224;2023-12-07T03:47:29;99084.29;;;-3.11;96.35
75247;BME280;63844;50.042;19.224;2023-12-07T03:49:05;99085.52;;;-3.11;96.16
75247;BME280;63844;50.042;19.224;2023-12-07T03:50:42;99087.23;;;-3.11;96.20
75247;BME280;63844;50.042;19.224;2023-12-07T03:52:19;99088.27;;;-3.10;96.16
75247;BME280;63844;50.042;19.224;2023-12-07T03:53:56;99084.27;;;-3.09;96.16
75247;BME280;63844;50.042;19.224;2023-12-07T03:55:32;99083.92;;;-3.08;96.10
75247;BME280;63844;50.042;19.224;2023-12-07T03:57:09;99084.95;;;-3.07;96.09
75247;BME280;63844;50.042;19.224;2023-12-07T03:58:46;99086.50;;;-3.07;96.03
75247;BME280;63844;50.042;19.224;2023-12-07T04:00:25;99085.11;;;-3.06;96.05
75247;BME280;63844;50.042;19.224;2023-12-07T04:02:02;99085.45;;;-3.07;96.17
75247;BME280;63844;50.042;19.224;2023-12-07T04:03:38;99087.17;;;-3.06;96.15
75247;BME280;63844;50.042;19.224;2023-12-07T04:05:15;99089.77;;;-3.06;96.03
75247;BME280;63844;50.042;19.224;2023-12-07T04:06:52;99091.35;;;-3.07;96.14
75247;BME280;63844;50.042;19.224;2023-12-07T04:08:28;99092.23;;;-3.09;96.46
75247;BME280;63844;50.042;19.224;2023-12-07T04:10:05;99092.76;;;-3.10;96.44
75247;BME280;63844;50.042;19.224;2023-12-07T04:11:42;99096.23;;;-3.10;96.28
75247;BME280;63844;50.042;19.224;2023-12-07T04:13:19;99091.40;;;-3.12;96.44
75247;BME280;63844;50.042;19.224;2023-12-07T04:14:56;99095.20;;;-3.12;96.48
75247;BME280;63844;50.042;19.224;2023-12-07T04:16:33;99094.55;;;-3.14;96.48
75247;BME280;63844;50.042;19.224;2023-12-07T04:18:09;99096.44;;;-3.13;96.39
75247;BME280;63844;50.042;19.224;2023-12-07T04:19:46;99096.60;;;-3.12;96.36
75247;BME280;63844;50.042;19.224;2023-12-07T04:21:23;99099.19;;;-3.12;96.53
75247;BME280;63844;50.042;19.224;2023-12-07T04:22:59;99099.38;;;-3.14;96.62
75247;BME280;63844;50.042;19.224;2023-12-07T04:24:36;99098.70;;;-3.14;96.53
75247;BME280;63844;50.042;19.224;2023-12-07T04:26:12;99103.35;;;-3.13;96.67
75247;BME280;63844;50.042;19.224;2023-12-07T04:27:49;99104.75;;;-3.14;96.57
75247;BME280;63844;50.042;19.224;2023-12-07T04:29:26;99106.14;;;-3.15;96.71
75247;BME280;63844;50.042;19.224;2023-12-07T04:31:03;99105.95;;;-3.14;96.64
75247;BME280;63844;50.042;19.224;2023-12-07T04:32:39;99105.95;;;-3.13;96.87
75247;BME280;63844;50.042;19.224;2023-12-07T04:34:16;99110.26;;;-3.11;96.86
75247;BME280;63844;50.042;19.224;2023-12-07T04:35:52;99106.46;;;-3.11;96.83
75247;BME280;63844;50.042;19.224;2023-12-07T04:37:29;99108.35;;;-3.10;96.87
75247;BME280;63844;50.042;19.224;2023-12-07T04:39:06;99108.48;;;-3.07;96.85
75247;BME280;63844;50.042;19.224;2023-12-07T04:40:43;99106.42;;;-3.08;96.76
75247;BME280;63844;50.042;19.224;2023-12-07T04:42:19;99105.02;;;-3.07;96.84
75247;BME280;63844;50.042;19.224;2023-12-07T04:43:56;99105.71;;;-3.06;96.87
75247;BME280;63844;50.042;19.224;2023-12-07T04:45:33;99106.73;;;-3.06;96.85
75247;BME280;63844;50.042;19.224;2023-12-07T04:47:09;99106.77;;;-3.08;96.73
75247;BME280;63844;50.042;19.224;2023-12-07T04:48:46;99107.46;;;-3.08;96.66
75247;BME280;63844;50.042;19.224;2023-12-07T04:50:23;99105.73;;;-3.09;96.86
75247;BME280;63844;50.042;19.224;2023-12-07T04:51:59;99109.20;;;-3.10;96.83
75247;BME280;63844;50.042;19.224;2023-12-07T04:53:36;99111.96;;;-3.09;96.82
75247;BME280;63844;50.042;19.224;2023-12-07T04:55:13;99111.96;;;-3.08;96.71
75247;BME280;63844;50.042;19.224;2023-12-07T04:56:49;99113.66;;;-3.05;96.68
75247;BME280;63844;50.042;19.224;2023-12-07T04:58:26;99115.40;;;-3.05;96.86
75247;BME280;63844;50.042;19.224;2023-12-07T05:00:04;99115.91;;;-3.04;96.59
75247;BME280;63844;50.042;19.224;2023-12-07T05:01:47;99116.94;;;-3.03;96.90
75247;BME280;63844;50.042;19.224;2023-12-07T05:03:23;99116.74;;;-3.02;96.71
75247;BME280;63844;50.042;19.224;2023-12-07T05:05:00;99120.73;;;-3.01;96.89
75247;BME280;63844;50.042;19.224;2023-12-07T05:06:37;99120.19;;;-3.00;96.83
75247;BME280;63844;50.042;19.224;2023-12-07T05:08:13;99122.97;;;-3.01;96.57
75247;BME280;63844;50.042;19.224;2023-12-07T05:09:50;99128.16;;;-3.00;96.67
75247;BME280;63844;50.042;19.224;2023-12-07T05:11:27;99128.17;;;-3.01;96.78
75247;BME280;63844;50.042;19.224;2023-12-07T05:13:04;99129.54;;;-3.01;96.78
75247;BME280;63844;50.042;19.224;2023-12-07T05:14:40;99131.79;;;-2.99;96.78
75247;BME280;63844;50.042;19.224;2023-12-07T05:16:17;99136.62;;;-2.98;96.84
75247;BME280;63844;50.042;19.224;2023-12-07T05:17:54;99134.88;;;-2.97;96.87
75247;BME280;63844;50.042;19.224;2023-12-07T05:19:30;99134.90;;;-2.99;96.91
75247;BME280;63844;50.042;19.224;2023-12-07T05:21:07;99139.57;;;-2.99;96.95
75247;BME280;63844;50.042;19.224;2023-12-07T05:22:44;99141.66;;;-3.00;96.88
75247;BME280;63844;50.042;19.224;2023-12-07T05:24:20;99147.39;;;-3.00;96.89
75247;BME280;63844;50.042;19.224;2023-12-07T05:25:57;99149.13;;;-3.01;97.07
75247;BME280;63844;50.042;19.224;2023-12-07T05:27:34;99154.66;;;-3.02;97.04
75247;BME280;63844;50.042;19.224;2023-12-07T05:29:11;99156.77;;;-3.04;97.08
75247;BME280;63844;50.042;19.224;2023-12-07T05:30:48;99160.57;;;-3.04;97.02
75247;BME280;63844;50.042;19.224;2023-12-07T05:32:25;99162.14;;;-3.05;97.12
75247;BME280;63844;50.042;19.224;2023-12-07T05:34:02;99164.91;;;-3.05;97.25
75247;BME280;63844;50.042;19.224;2023-12-07T05:35:40;99162.48;;;-3.06;97.23
75247;BME280;63844;50.042;19.224;2023-12-07T05:37:16;99164.77;;;-3.09;97.40
75247;BME280;63844;50.042;19.224;2023-12-07T05:38:53;99165.29;;;-3.09;97.29
75247;BME280;63844;50.042;19.224;2023-12-07T05:40:30;99164.59;;;-3.09;97.44
75247;BME280;63844;50.042;19.224;2023-12-07T05:42:06;99167.52;;;-3.07;97.48
75247;BME280;63844;50.042;19.224;2023-12-07T05:43:43;99166.48;;;-3.07;97.55
75247;BME280;63844;50.042;19.224;2023-12-07T05:45:20;99167.67;;;-3.06;97.47
75247;BME280;63844;50.042;19.224;2023-12-07T05:46:56;99169.59;;;-3.05;97.61
75247;BME280;63844;50.042;19.224;2023-12-07T05:48:34;99170.98;;;-3.06;97.55
75247;BME280;63844;50.042;19.224;2023-12-07T05:50:11;99167.18;;;-3.07;97.45
75247;BME280;63844;50.042;19.224;2023-12-07T05:51:48;99171.32;;;-3.06;97.54
75247;BME280;63844;50.042;19.224;2023-12-07T05:53:25;99170.96;;;-3.06;97.68
75247;BME280;63844;50.042;19.224;2023-12-07T05:55:03;99171.33;;;-3.06;97.51
75247;BME280;63844;50.042;19.224;2023-12-07T05:56:41;99177.20;;;-3.06;97.61
75247;BME280;63844;50.042;19.224;2023-12-07T05:58:18;99178.07;;;-3.06;97.60
75247;BME280;63844;50.042;19.224;2023-12-07T05:59:54;99180.15;;;-3.05;97.43
75247;BME280;63844;50.042;19.224;2023-12-07T06:01:31;99176.66;;;-3.03;97.62
75247;BME280;63844;50.042;19.224;2023-12-07T06:03:08;99184.13;;;-3.06;97.52
75247;BME280;63844;50.042;19.224;2023-12-07T06:04:46;99185.52;;;-3.06;97.50
75247;BME280;63844;50.042;19.224;2023-12-07T06:06:22;99186.90;;;-3.07;97.55
75247;BME280;63844;50.042;19.224;2023-12-07T06:07:59;99186.39;;;-3.07;97.63
75247;BME280;63844;50.042;19.224;2023-12-07T06:09:36;99190.70;;;-3.07;97.53
75247;BME280;63844;50.042;19.224;2023-12-07T06:11:13;99192.79;;;-3.06;97.60
75247;BME280;63844;50.042;19.224;2023-12-07T06:12:49;99195.73;;;-3.07;97.57
75247;BME280;63844;50.042;19.224;2023-12-07T06:14:26;99195.41;;;-3.07;97.60
75247;BME280;63844;50.042;19.224;2023-12-07T06:16:03;99196.09;;;-3.06;97.66
75247;BME280;63844;50.042;19.224;2023-12-07T06:17:40;99199.73;;;-3.08;97.57
75247;BME280;63844;50.042;19.224;2023-12-07T06:19:16;99199.40;;;-3.10;97.74
75247;BME280;63844;50.042;19.224;2023-12-07T06:20:53;99196.11;;;-3.10;97.65
75247;BME280;63844;50.042;19.224;2023-12-07T06:22:30;99197.50;;;-3.10;97.76
75247;BME280;63844;50.042;19.224;2023-12-07T06:24:07;99203.20;;;-3.09;97.82
75247;BME280;63844;50.042;19.224;2023-12-07T06:25:43;99206.30;;;-3.07;97.81
75247;BME280;63844;50.042;19.224;2023-12-07T06:27:20;99205.27;;;-3.08;97.83
75247;BME280;63844;50.042;19.224;2023-12-07T06:28:57;99208.73;;;-3.10;97.91
75247;BME280;63844;50.042;19.224;2023-12-07T06:30:34;99208.73;;;-3.08;98.01
75247;BME280;63844;50.042;19.224;2023-12-07T06:32:11;99210.30;;;-3.09;98.08
75247;BME280;63844;50.042;19.224;2023-12-07T06:33:48;99211.34;;;-3.08;98.16
75247;BME280;63844;50.042;19.224;2023-12-07T06:35:24;99219.63;;;-3.06;98.29
75247;BME280;63844;50.042;19.224;2023-12-07T06:37:01;99215.80;;;-3.04;98.17
75247;BME280;63844;50.042;19.224;2023-12-07T06:38:38;99216.50;;;-3.05;98.15
75247;BME280;63844;50.042;19.224;2023-12-07T06:40:15;99216.14;;;-3.03;98.08
75247;BME280;63844;50.042;19.224;2023-12-07T06:41:51;99218.05;;;-3.03;98.18
75247;BME280;63844;50.042;19.224;2023-12-07T06:43:28;99219.58;;;-3.01;98.04
75247;BME280;63844;50.042;19.224;2023-12-07T06:45:05;99224.78;;;-3.00;98.10
75247;BME280;63844;50.042;19.224;2023-12-07T06:46:46;99227.71;;;-3.00;98.12
75247;BME280;63844;50.042;19.224;2023-12-07T06:48:23;99229.97;;;-2.99;98.12
75247;BME280;63844;50.042;19.224;2023-12-07T06:50:00;99233.41;;;-2.97;98.15
75247;BME280;63844;50.042;19.224;2023-12-07T06:51:39;99232.55;;;-2.97;98.08
75247;BME280;63844;50.042;19.224;2023-12-07T06:53:15;99231.31;;;-2.95;98.08
75247;BME280;63844;50.042;19.224;2023-12-07T06:54:52;99229.75;;;-2.94;98.15
75247;BME280;63844;50.042;19.224;2023-12-07T06:56:29;99231.64;;;-2.92;98.13
75247;BME280;63844;50.042;19.224;2023-12-07T06:58:05;99230.77;;;-2.90;98.22
75247;BME280;63844;50.042;19.224;2023-12-07T06:59:42;99231.44;;;-2.89;98.17
75247;BME280;63844;50.042;19.224;2023-12-07T07:01:18;99234.72;;;-2.87;98.06
75247;BME280;63844;50.042;19.224;2023-12-07T07:02:55;99235.22;;;-2.84;98.05
75247;BME280;63844;50.042;19.224;2023-12-07T07:04:32;99235.38;;;-2.83;98.02
75247;BME280;63844;50.042;19.224;2023-12-07T07:06:09;99239.17;;;-2.81;97.87
75247;BME280;63844;50.042;19.224;2023-12-07T07:07:45;99243.30;;;-2.78;97.96
75247;BME280;63844;50.042;19.224;2023-12-07T07:09:22;99242.25;;;-2.75;97.95
75247;BME280;63844;50.042;19.224;2023-12-07T07:10:59;99243.09;;;-2.74;97.78
75247;BME280;63844;50.042;19.224;2023-12-07T07:12:35;99243.43;;;-2.73;97.69
75247;BME280;63844;50.042;19.224;2023-12-07T07:14:12;99242.52;;;-2.68;97.74
75247;BME280;63844;50.042;19.224;2023-12-07T07:15:48;99246.49;;;-2.66;97.50
75247;BME280;63844;50.042;19.224;2023-12-07T07:17:25;99246.84;;;-2.67;97.25
75247;BME280;63844;50.042;19.224;2023-12-07T07:19:02;99252.22;;;-2.66;97.24
75247;BME280;63844;50.042;19.224;2023-12-07T07:20:39;99254.64;;;-2.65;97.27
75247;BME280;63844;50.042;19.224;2023-12-07T07:22:15;99255.14;;;-2.64;97.24
75247;BME280;63844;50.042;19.224;2023-12-07T07:23:52;99255.30;;;-2.63;97.27
75247;BME280;63844;50.042;19.224;2023-12-07T07:25:29;99255.10;;;-2.61;97.25
75247;BME280;63844;50.042;19.224;2023-12-07T07:27:06;99251.64;;;-2.59;97.41
75247;BME280;63844;50.042;19.224;2023-12-07T07:28:43;99251.83;;;-2.60;97.25
75247;BME280;63844;50.042;19.224;2023-12-07T07:30:23;99255.95;;;-2.58;97.16
75247;BME280;63844;50.042;19.224;2023-12-07T07:32:00;99254.39;;;-2.57;97.12
75247;BME280;63844;50.042;19.224;2023-12-07T07:33:37;99260.09;;;-2.57;97.08
75247;BME280;63844;50.042;19.224;2023-12-07T07:35:14;99254.89;;;-2.56;97.12
75247;BME280;63844;50.042;19.224;2023-12-07T07:36:51;99258.84;;;-2.53;97.15
75247;BME280;63844;50.042;19.224;2023-12-07T07:38:27;99263.16;;;-2.51;96.89
75247;BME280;63844;50.042;19.224;2023-12-07T07:40:05;99266.27;;;-2.49;96.97
75247;BME280;63844;50.042;19.224;2023-12-07T07:41:43;99263.64;;;-2.46;96.96
75247;BME280;63844;50.042;19.224;2023-12-07T07:43:20;99269.00;;;-2.43;96.84
75247;BME280;63844;50.042;19.224;2023-12-07T07:44:56;99269.83;;;-2.41;96.62
75247;BME280;63844;50.042;19.224;2023-12-07T07:46:33;99268.78;;;-2.40;96.63
75247;BME280;63844;50.042;19.224;2023-12-07T07:48:10;99271.02;;;-2.38;96.63
75247;BME280;63844;50.042;19.224;2023-12-07T07:49:46;99269.16;;;-2.41;96.49
75247;BME280;63844;50.042;19.224;2023-12-07T07:51:23;99272.25;;;-2.40;96.85
75247;BME280;63844;50.042;19.224;2023-12-07T07:53:00;99271.75;;;-2.42;96.75
75247;BME280;63844;50.042;19.224;2023-12-07T07:54:38;99270.85;;;-2.39;96.60
75247;BME280;63844;50.042;19.224;2023-12-07T07:56:14;99271.84;;;-2.34;96.78
75247;BME280;63844;50.042;19.224;2023-12-07T07:57:51;99273.61;;;-2.37;96.57
75247;BME280;63844;50.042;19.224;2023-12-07T07:59:28;99271.65;;;-2.31;96.87
75247;BME280;63844;50.042;19.224;2023-12-07T08:01:05;99275.45;;;-2.50;96.86
75247;BME280;63844;50.042;19.224;2023-12-07T08:02:42;99276.83;;;-2.68;97.14
75247;BME280;63844;50.042;19.224;2023-12-07T08:04:19;99273.92;;;-2.75;97.53
75247;BME280;63844;50.042;19.224;2023-12-07T08:05:55;99273.02;;;-2.69;97.92
75247;BME280;63844;50.042;19.224;2023-12-07T08:07:32;99275.03;;;-2.61;97.81
75247;BME280;63844;50.042;19.224;2023-12-07T08:09:08;99278.88;;;-2.64;97.85
75247;BME280;63844;50.042;19.224;2023-12-07T08:10:46;99280.53;;;-2.55;97.71
75247;BME280;63844;50.042;19.224;2023-12-07T08:12:23;99277.23;;;-2.56;97.55
75247;BME280;63844;50.042;19.224;2023-12-07T08:13:59;99273.98;;;-2.60;97.61
75247;BME280;63844;50.042;19.224;2023-12-07T08:15:36;99276.41;;;-2.60;97.55
75247;BME280;63844;50.042;19.224;2023-12-07T08:17:13;99276.55;;;-2.54;97.57
75247;BME280;63844;50.042;19.224;2023-12-07T08:18:49;99273.42;;;-2.55;97.66
75247;BME280;63844;50.042;19.224;2023-12-07T08:20:26;99272.09;;;-2.61;97.86
75247;BME280;63844;50.042;19.224;2023-12-07T08:22:03;99276.03;;;-2.55;97.71
75247;BME280;63844;50.042;19.224;2023-12-07T08:23:41;99275.61;;;-2.67;97.73
75247;BME280;63844;50.042;19.224;2023-12-07T08:25:18;99281.51;;;-2.68;98.09
75247;BME280;63844;50.042;19.224;2023-12-07T08:26:55;99280.30;;;-2.67;98.51
75247;BME280;63844;50.042;19.224;2023-12-07T08:28:32;99282.19;;;-2.65;98.57
75247;BME280;63844;50.042;19.224;2023-12-07T08:30:09;99280.79;;;-2.66;98.49